createdAt,value
2018-03-21T00:01:18.512Z,3.70
2018-03-21T00:04:20.955Z,3.30
2018-03-21T00:07:23.493Z,3.30
2018-03-21T00:10:26.060Z,2.97
2018-03-21T00:13:28.541Z,3.03
2018-03-21T00:16:31.022Z,2.90
2018-03-21T00:19:33.500Z,3.40
2018-03-21T00:22:36.002Z,3.17
2018-03-21T00:25:38.506Z,2.90
2018-03-21T00:28:41.032Z,2.83
2018-03-21T00:31:43.531Z,3.20
2018-03-21T00:34:46.001Z,2.33
2018-03-21T00:37:48.611Z,2.80
2018-03-21T00:40:51.097Z,3.17
2018-03-21T00:43:53.631Z,2.97
2018-03-21T00:46:56.095Z,3.00
2018-03-21T00:49:58.577Z,2.83
2018-03-21T00:53:01.041Z,3.20
2018-03-21T00:56:03.509Z,3.70
2018-03-21T00:59:06.035Z,3.53
2018-03-21T01:02:08.490Z,3.27
2018-03-21T01:05:11.055Z,3.40
2018-03-21T01:08:13.655Z,3.37
2018-03-21T01:11:16.098Z,3.20
2018-03-21T01:14:18.666Z,4.57
2018-03-21T01:17:21.130Z,4.00
2018-03-21T01:20:23.667Z,3.90
2018-03-21T01:23:26.165Z,3.97
2018-03-21T01:26:28.665Z,4.17
2018-03-21T01:29:31.188Z,3.87
2018-03-21T01:32:33.672Z,3.67
2018-03-21T01:35:36.136Z,4.90
2018-03-21T01:38:38.602Z,3.40
2018-03-21T01:41:41.097Z,3.87
2018-03-21T01:44:43.660Z,4.30
2018-03-21T01:47:46.091Z,4.00
2018-03-21T01:50:48.591Z,4.03
2018-03-21T01:53:51.054Z,4.40
2018-03-21T01:56:53.600Z,4.00
2018-03-21T01:59:56.166Z,3.20
2018-03-21T02:02:58.602Z,4.03
2018-03-21T02:06:01.063Z,4.63
2018-03-21T02:09:03.491Z,3.90
2018-03-21T02:12:06.015Z,4.23
2018-03-21T02:15:08.655Z,4.30
2018-03-21T02:18:11.233Z,4.33
2018-03-21T02:21:13.676Z,4.60
2018-03-21T02:24:16.263Z,4.43
2018-03-21T02:27:18.721Z,4.30
2018-03-21T02:30:21.221Z,4.60
2018-03-21T02:33:23.714Z,4.20
2018-03-21T02:36:26.163Z,4.77
2018-03-21T02:39:28.648Z,4.93
2018-03-21T02:42:31.146Z,4.63
2018-03-21T02:45:33.608Z,5.03
2018-03-21T02:48:36.126Z,5.77
2018-03-21T02:51:38.608Z,4.60
2018-03-21T02:54:41.166Z,4.90
2018-03-21T02:57:43.590Z,5.03
2018-03-21T03:00:46.092Z,4.97
2018-03-21T03:03:48.653Z,4.93
2018-03-21T03:06:51.141Z,4.80
2018-03-21T03:09:53.679Z,5.10
2018-03-21T03:12:56.123Z,5.00
2018-03-21T03:15:58.703Z,4.37
2018-03-21T03:19:01.258Z,5.27
2018-03-21T03:22:03.731Z,5.07
2018-03-21T03:25:06.183Z,5.43
2018-03-21T03:28:08.646Z,4.87
2018-03-21T03:31:11.103Z,5.30
2018-03-21T03:34:13.668Z,5.03
2018-03-21T03:37:16.229Z,5.03
2018-03-21T03:40:18.740Z,4.60
2018-03-21T03:43:21.246Z,5.87
2018-03-21T03:46:23.685Z,5.67
2018-03-21T03:49:26.138Z,5.57
2018-03-21T03:52:28.741Z,6.10
2018-03-21T03:55:32.097Z,5.80
2018-03-21T03:58:34.658Z,5.93
2018-03-21T04:01:37.241Z,5.23
2018-03-21T04:04:39.714Z,5.63
2018-03-21T04:07:42.204Z,6.10
2018-03-21T04:10:44.654Z,5.83
2018-03-21T04:13:47.186Z,6.27
2018-03-21T04:16:49.648Z,6.80
2018-03-21T04:19:52.124Z,5.40
2018-03-21T04:22:54.676Z,4.73
2018-03-21T04:25:57.341Z,4.90
2018-03-21T04:28:59.789Z,4.10
2018-03-21T04:32:02.357Z,3.90
2018-03-21T04:35:04.926Z,4.60
2018-03-21T04:38:07.473Z,4.47
2018-03-21T04:41:10.051Z,4.50
2018-03-21T04:44:12.557Z,4.90
2018-03-21T04:47:15.085Z,4.53
2018-03-21T04:50:17.560Z,5.40
2018-03-21T04:53:20.049Z,5.53
2018-03-21T04:56:22.664Z,5.80
2018-03-21T04:59:25.231Z,5.47
2018-03-21T05:02:27.683Z,5.77
2018-03-21T05:05:30.200Z,5.57
2018-03-21T05:08:32.808Z,5.90
2018-03-21T05:11:35.246Z,6.53
2018-03-21T05:14:37.734Z,6.60
2018-03-21T05:17:40.250Z,6.80
2018-03-21T05:20:42.722Z,6.17
2018-03-21T05:23:45.168Z,6.10
2018-03-21T05:26:47.777Z,6.33
2018-03-21T05:29:50.352Z,6.57
2018-03-21T05:32:52.845Z,6.20
2018-03-21T05:35:55.332Z,5.77
2018-03-21T05:38:57.819Z,5.30
2018-03-21T05:42:00.303Z,5.53
2018-03-21T05:45:02.879Z,6.40
2018-03-21T05:48:05.465Z,6.30
2018-03-21T05:51:07.955Z,6.63
2018-03-21T05:54:10.414Z,6.10
2018-03-21T05:57:13.790Z,5.87
2018-03-21T06:00:16.274Z,6.60
2018-03-21T06:03:18.838Z,5.67
2018-03-21T06:06:21.410Z,5.80
2018-03-21T06:09:23.846Z,5.80
2018-03-21T06:12:26.382Z,5.60
2018-03-21T06:15:28.991Z,6.40
2018-03-21T06:18:31.499Z,5.50
2018-03-21T06:21:33.983Z,5.80
2018-03-21T06:24:36.575Z,6.00
2018-03-21T06:27:39.126Z,4.70
2018-03-21T06:30:41.599Z,5.13
2018-03-21T06:33:44.088Z,5.23
2018-03-21T06:36:46.726Z,5.53
2018-03-21T06:39:49.690Z,5.77
2018-03-21T06:42:52.172Z,5.03
2018-03-21T06:45:54.659Z,5.40
2018-03-21T06:48:57.189Z,5.30
2018-03-21T06:51:59.683Z,5.50
2018-03-21T06:55:02.203Z,5.40
2018-03-21T06:58:04.763Z,5.03
2018-03-21T07:01:07.278Z,4.90
2018-03-21T07:04:09.890Z,4.83
2018-03-21T07:07:12.351Z,4.83
2018-03-21T07:10:14.793Z,4.73
2018-03-21T07:13:17.274Z,5.43
2018-03-21T07:16:31.703Z,5.03
2018-03-21T07:19:34.165Z,5.57
2018-03-21T07:22:36.724Z,4.90
2018-03-21T07:25:39.245Z,4.87
2018-03-21T07:28:41.731Z,5.50
2018-03-21T07:31:44.215Z,5.17
2018-03-21T07:34:46.681Z,5.17
2018-03-21T07:37:49.136Z,5.20
2018-03-21T07:40:51.699Z,5.70
2018-03-21T07:43:54.161Z,5.97
2018-03-21T07:46:56.615Z,5.20
2018-03-21T07:49:59.092Z,5.67
2018-03-21T07:53:01.572Z,5.77
2018-03-21T07:56:04.046Z,6.10
2018-03-21T07:59:06.531Z,8.27
2018-03-21T08:02:08.995Z,6.07
2018-03-21T08:05:11.486Z,6.10
2018-03-21T08:08:13.919Z,8.53
2018-03-21T08:11:16.509Z,6.10
2018-03-21T08:14:19.146Z,6.77
2018-03-21T08:17:21.666Z,6.00
2018-03-21T08:20:24.165Z,6.47
2018-03-21T08:23:26.610Z,6.50
2018-03-21T08:26:29.105Z,4.70
2018-03-21T08:29:31.570Z,4.30
2018-03-21T08:32:34.040Z,5.13
2018-03-21T08:35:36.511Z,6.00
2018-03-21T08:38:38.956Z,6.13
2018-03-21T08:41:41.470Z,7.20
2018-03-21T08:44:43.980Z,7.20
2018-03-21T08:47:46.643Z,7.67
2018-03-21T08:50:49.104Z,7.73
2018-03-21T08:53:51.620Z,9.20
2018-03-21T08:56:54.067Z,8.60
2018-03-21T08:59:56.558Z,9.67
2018-03-21T09:02:59.046Z,8.80
2018-03-21T09:06:01.616Z,9.87
2018-03-21T09:09:04.179Z,9.53
2018-03-21T09:12:06.657Z,9.70
2018-03-21T09:15:09.136Z,9.60
2018-03-21T09:18:11.609Z,9.70
2018-03-21T09:21:14.144Z,10.00
2018-03-21T09:24:16.686Z,9.67
2018-03-21T09:27:19.206Z,10.60
2018-03-21T09:30:21.703Z,11.10
2018-03-21T09:33:24.272Z,10.60
2018-03-21T09:36:26.762Z,10.97
2018-03-21T09:39:29.206Z,9.90
2018-03-21T09:42:31.752Z,9.97
2018-03-21T09:45:34.310Z,10.70
2018-03-21T09:48:36.802Z,10.17
2018-03-21T09:51:39.276Z,9.70
2018-03-21T09:54:44.332Z,9.60
2018-03-21T09:57:46.775Z,9.23
2018-03-21T10:00:49.248Z,9.77
2018-03-21T10:03:51.762Z,10.30
2018-03-21T10:06:54.277Z,10.43
2018-03-21T10:09:56.773Z,10.97
2018-03-21T10:12:59.278Z,11.50
2018-03-21T10:16:01.761Z,10.57
2018-03-21T10:19:04.212Z,10.47
2018-03-21T10:22:06.710Z,9.50
2018-03-21T10:25:09.368Z,8.60
2018-03-21T10:28:11.937Z,9.90
2018-03-21T10:31:14.393Z,8.50
2018-03-21T10:34:16.909Z,9.10
2018-03-21T10:37:19.417Z,9.00
2018-03-21T10:40:21.914Z,8.27
2018-03-21T10:43:24.361Z,8.30
2018-03-21T10:46:26.857Z,9.67
2018-03-21T10:49:29.318Z,8.87
2018-03-21T10:52:38.912Z,9.90
2018-03-21T10:55:34.331Z,9.40
2018-03-21T10:58:36.801Z,9.50
2018-03-21T11:01:41.044Z,8.80
2018-03-21T11:04:43.567Z,8.23
2018-03-21T11:07:46.074Z,8.47
2018-03-21T11:10:48.556Z,8.67
2018-03-21T11:13:51.051Z,9.10
2018-03-21T11:16:53.547Z,8.70
2018-03-21T11:19:56.222Z,9.00
2018-03-21T11:22:58.779Z,8.57
2018-03-21T11:26:01.343Z,8.13
2018-03-21T11:29:03.802Z,8.63
2018-03-21T11:32:06.373Z,8.37
2018-03-21T11:35:08.907Z,6.93
2018-03-21T11:38:11.388Z,7.20
2018-03-21T11:41:13.917Z,7.13
2018-03-21T11:44:16.421Z,7.00
2018-03-21T11:47:18.892Z,6.47
2018-03-21T11:50:21.437Z,7.00
2018-03-21T11:53:23.939Z,7.40
2018-03-21T11:56:26.399Z,7.27
2018-03-21T11:59:28.879Z,8.27
2018-03-21T12:02:31.347Z,7.97
2018-03-21T12:05:33.841Z,7.40
2018-03-21T12:08:36.426Z,8.80
2018-03-21T12:11:38.969Z,8.53
2018-03-21T12:14:41.464Z,8.20
2018-03-21T12:17:43.913Z,7.27
2018-03-21T12:20:46.388Z,8.27
2018-03-21T12:23:48.914Z,8.20
2018-03-21T12:26:51.462Z,7.93
2018-03-21T12:29:53.928Z,7.70
2018-03-21T12:32:56.494Z,7.60
2018-03-21T12:35:59.010Z,6.80
2018-03-21T12:39:01.461Z,8.23
2018-03-21T12:42:03.954Z,8.27
2018-03-21T12:45:06.542Z,8.00
2018-03-21T12:48:08.974Z,8.30
2018-03-21T12:51:11.472Z,8.10
2018-03-21T12:54:14.032Z,8.93
2018-03-21T12:57:16.698Z,9.80
2018-03-21T13:00:19.360Z,10.90
2018-03-21T13:03:21.973Z,10.30
2018-03-21T13:06:24.439Z,10.57
2018-03-21T13:09:26.964Z,10.47
2018-03-21T13:12:29.800Z,10.57
2018-03-21T13:15:32.304Z,9.80
2018-03-21T13:18:34.851Z,9.80
2018-03-21T13:21:37.326Z,9.13
2018-03-21T13:24:39.873Z,9.13
2018-03-21T13:27:42.387Z,9.07
2018-03-21T13:30:44.820Z,9.67
2018-03-21T13:33:47.330Z,10.37
2018-03-21T13:36:49.832Z,10.17
2018-03-21T13:39:52.295Z,10.20
2018-03-21T13:42:54.815Z,9.57
2018-03-21T13:45:57.297Z,9.37
2018-03-21T13:48:59.870Z,9.07
2018-03-21T13:52:02.360Z,10.00
2018-03-21T13:55:04.801Z,8.50
2018-03-21T13:58:07.312Z,10.20
2018-03-21T14:01:09.906Z,9.97
2018-03-21T14:04:12.473Z,10.03
2018-03-21T14:07:14.939Z,9.57
2018-03-21T14:10:17.534Z,8.23
2018-03-21T14:13:20.028Z,7.73
2018-03-21T14:16:22.608Z,9.77
2018-03-21T14:19:25.174Z,8.47
2018-03-21T14:22:27.655Z,9.10
2018-03-21T14:25:30.175Z,8.10
2018-03-21T14:28:32.666Z,9.17
2018-03-21T14:31:35.123Z,9.50
2018-03-21T14:34:37.642Z,9.67
2018-03-21T14:37:40.141Z,9.80
2018-03-21T14:40:42.802Z,9.70
2018-03-21T14:43:45.262Z,9.70
2018-03-21T14:46:47.724Z,8.40
2018-03-21T14:49:50.289Z,8.60
2018-03-21T14:52:52.854Z,9.47
2018-03-21T14:55:55.345Z,9.13
2018-03-21T14:58:57.876Z,9.60
2018-03-21T15:02:00.379Z,9.07
2018-03-21T15:05:02.873Z,9.20
2018-03-21T15:08:05.377Z,8.80
2018-03-21T15:11:07.942Z,8.87
2018-03-21T15:14:10.461Z,8.60
2018-03-21T15:17:12.917Z,8.90
2018-03-21T15:20:15.413Z,9.00
2018-03-21T15:23:17.909Z,10.00
2018-03-21T15:26:20.430Z,10.30
2018-03-21T15:29:23.097Z,9.10
2018-03-21T15:32:25.657Z,9.07
2018-03-21T15:35:28.232Z,9.10
2018-03-21T15:38:30.787Z,7.90
2018-03-21T15:41:33.274Z,8.80
2018-03-21T15:44:35.807Z,8.00
2018-03-21T15:47:38.474Z,9.20
2018-03-21T15:50:41.032Z,7.70
2018-03-21T15:53:43.476Z,7.70
2018-03-21T15:56:46.053Z,7.43
2018-03-21T15:59:48.722Z,8.20
2018-03-21T16:02:51.185Z,7.60
2018-03-21T16:05:53.712Z,7.50
2018-03-21T16:08:56.298Z,8.70
2018-03-21T16:11:58.789Z,7.00
2018-03-21T16:15:01.435Z,7.83
2018-03-21T16:18:03.993Z,6.80
2018-03-21T16:21:06.572Z,6.70
2018-03-21T16:24:09.225Z,7.70
2018-03-21T16:27:11.741Z,7.57
2018-03-21T16:30:14.250Z,6.80
2018-03-21T16:33:16.806Z,7.40
2018-03-21T16:36:19.371Z,7.50
2018-03-21T16:39:21.823Z,8.20
2018-03-21T16:42:24.303Z,7.53
2018-03-21T16:45:26.852Z,6.80
2018-03-21T16:48:29.389Z,6.77
2018-03-21T16:51:31.888Z,7.83
2018-03-21T16:54:34.446Z,7.80
2018-03-21T16:57:37.005Z,6.90
2018-03-21T17:00:39.487Z,6.73
2018-03-21T17:03:41.965Z,7.10
2018-03-21T17:06:44.469Z,6.60
2018-03-21T17:09:46.951Z,6.73
2018-03-21T17:12:49.519Z,7.10
2018-03-21T17:15:52.071Z,6.57
2018-03-21T17:18:54.577Z,7.20
2018-03-21T17:21:57.134Z,6.70
2018-03-21T17:24:59.613Z,7.10
2018-03-21T17:28:02.107Z,7.40
2018-03-21T17:31:04.611Z,6.70
2018-03-21T17:34:07.120Z,8.63
2018-03-21T17:37:09.603Z,7.53
2018-03-21T17:40:12.106Z,7.10
2018-03-21T17:43:15.368Z,7.57
2018-03-21T17:46:17.908Z,7.07
2018-03-21T17:49:20.383Z,7.50
2018-03-21T17:52:22.987Z,7.20
2018-03-21T17:55:25.598Z,6.87
2018-03-21T17:58:28.114Z,7.40
2018-03-21T18:01:30.558Z,7.40
2018-03-21T18:04:33.101Z,7.10
2018-03-21T18:07:37.058Z,6.83
2018-03-21T18:10:39.512Z,6.20
2018-03-21T18:13:42.002Z,7.40
2018-03-21T18:16:44.489Z,7.10
2018-03-21T18:19:46.997Z,7.40
2018-03-21T18:22:49.508Z,7.13
2018-03-21T18:25:52.042Z,8.00
2018-03-21T18:28:54.630Z,7.13
2018-03-21T18:31:57.102Z,7.23
2018-03-21T18:34:59.629Z,6.80
2018-03-21T18:38:02.090Z,7.37
2018-03-21T18:41:04.563Z,8.13
2018-03-21T18:44:07.066Z,7.63
2018-03-21T18:47:10.131Z,7.87
2018-03-21T18:50:12.627Z,7.70
2018-03-21T18:53:15.137Z,7.50
2018-03-21T18:56:17.648Z,7.67
2018-03-21T18:59:20.337Z,8.17
2018-03-21T19:02:22.884Z,7.53
2018-03-21T19:05:25.459Z,7.60
2018-03-21T19:08:27.928Z,8.90
2018-03-21T19:11:30.486Z,7.50
2018-03-21T19:14:32.974Z,7.90
2018-03-21T19:17:35.513Z,7.50
2018-03-21T19:20:38.053Z,7.83
2018-03-21T19:23:40.523Z,7.80
2018-03-21T19:26:43.913Z,7.77
2018-03-21T19:29:46.358Z,7.43
2018-03-21T19:32:48.820Z,7.83
2018-03-21T19:35:51.265Z,8.00
2018-03-21T19:38:53.736Z,8.07
2018-03-21T19:41:56.214Z,7.97
2018-03-21T19:44:58.703Z,8.30
2018-03-21T19:48:01.201Z,8.70
2018-03-21T19:51:03.761Z,8.90
2018-03-21T19:54:06.270Z,8.90
2018-03-21T19:57:08.835Z,9.60
2018-03-21T20:00:11.390Z,9.70
2018-03-21T20:03:13.874Z,9.70
2018-03-21T20:06:16.393Z,10.27
2018-03-21T20:09:18.909Z,11.20
2018-03-21T20:12:21.439Z,10.70
2018-03-21T20:15:23.998Z,12.27
2018-03-21T20:18:26.458Z,11.50
2018-03-21T20:21:28.955Z,11.77
2018-03-21T20:24:31.493Z,13.33
2018-03-21T20:27:34.039Z,12.43
2018-03-21T20:30:36.605Z,14.27
2018-03-21T20:33:39.066Z,14.90
2018-03-21T20:36:42.778Z,14.77
2018-03-21T20:39:45.333Z,15.47
2018-03-21T20:42:47.820Z,16.00
2018-03-21T20:45:50.320Z,16.10
2018-03-21T20:48:52.799Z,17.30
2018-03-21T20:51:55.292Z,17.57
2018-03-21T20:54:57.820Z,18.00
2018-03-21T20:58:00.381Z,18.20
2018-03-21T21:01:03.062Z,18.20
2018-03-21T21:04:05.643Z,18.60
2018-03-21T21:07:08.175Z,18.90
2018-03-21T21:10:10.726Z,22.80
2018-03-21T21:13:13.247Z,21.97
2018-03-21T21:16:15.695Z,21.43
2018-03-21T21:19:18.223Z,22.20
2018-03-21T21:22:20.797Z,23.67
2018-03-21T21:25:23.360Z,22.53
2018-03-21T21:28:25.820Z,24.10
2018-03-21T21:31:28.483Z,23.80
2018-03-21T21:34:31.040Z,24.50
2018-03-21T21:37:34.216Z,23.37
2018-03-21T21:40:36.794Z,24.23
2018-03-21T21:43:39.435Z,23.37
2018-03-21T21:46:41.886Z,23.70
2018-03-21T21:49:44.502Z,22.87
2018-03-21T21:52:47.135Z,24.30
2018-03-21T21:55:49.633Z,23.90
2018-03-21T21:58:52.162Z,22.43
2018-03-21T22:01:54.736Z,23.60
2018-03-21T22:04:57.264Z,23.73
2018-03-21T22:07:59.862Z,24.43
2018-03-21T22:11:02.405Z,23.50
2018-03-21T22:14:05.191Z,23.30
2018-03-21T22:17:07.645Z,23.37
2018-03-21T22:20:10.180Z,23.10
2018-03-21T22:23:12.737Z,24.10
2018-03-21T22:26:15.231Z,23.80
2018-03-21T22:29:17.892Z,22.90
2018-03-21T22:32:20.420Z,23.00
2018-03-21T22:35:22.910Z,22.77
2018-03-21T22:38:25.421Z,21.00
2018-03-21T22:41:27.909Z,21.93
2018-03-21T22:44:30.371Z,21.40
2018-03-21T22:47:32.840Z,19.90
2018-03-21T22:50:35.271Z,20.33
2018-03-21T22:53:37.778Z,19.50
2018-03-21T22:56:40.251Z,20.67
2018-03-21T22:59:42.732Z,21.00
2018-03-21T23:02:45.187Z,19.67
2018-03-21T23:05:47.828Z,20.30
2018-03-21T23:08:50.385Z,18.33
2018-03-21T23:11:52.958Z,17.90
2018-03-21T23:14:55.403Z,18.30
2018-03-21T23:17:57.910Z,17.60
2018-03-21T23:21:00.367Z,17.70
2018-03-21T23:24:02.840Z,17.07
2018-03-21T23:27:05.352Z,16.50
2018-03-21T23:30:07.880Z,16.10
2018-03-21T23:33:10.357Z,16.43
2018-03-21T23:36:12.950Z,18.03
2018-03-21T23:39:15.497Z,15.87
2018-03-21T23:42:17.967Z,15.57
2018-03-21T23:45:20.453Z,15.20
2018-03-21T23:48:22.962Z,13.93
2018-03-21T23:51:25.416Z,15.03
2018-03-21T23:54:27.898Z,14.30
2018-03-21T23:57:30.428Z,15.30
